Huvudsida
METAR-TAF:

METAR-TAF

Flygplatser :

Ørsta-Volda flygplats. Hovden

Ørsta-Volda, Norge

latitud: 62-11N, longitud: 006-04E, höjd: 7 m

Aktuellt väderrapport

Denna rapport gjordes för 18 minuter sedan, klockan 19:20 UTC
Vind 4 kt varierande vindriktning
Temperatur 13°C
Fuktighet 67%
Tryck 1025 hPa
Sikt 10 km eller mer
Få moln på en höjd av 3000 ft

METAR: ENOV 251920Z VRB04KT 9999 FEW030 13/07 Q1025 RMK WIND 2175FT 22004KT

Tid: 21:38 (19:38 UTC)


TAF: saknas

Aktuella väderrapporter och prognoser från 4000 flygplatser (METAR- och TAF-rapporter).

De tillgängliga stationerna syns som gula och röda prickar på kartan.

För musen över prickarna för att se namnen på stationerna.

Klicka sedan för att få väderrapporter och prognoser.

För att ändra kartan: Klicka på de gröna knapparna med ett svart kors på för att zooma in; den gröna knappen med ett streck på för att zooma ut; eller på de gröna pilarna för angränsande kartor.


METAR-TAF: